createdAt,value
2023-04-01T00:01:39.773Z,9.60
2023-04-01T00:05:12.582Z,10.35
2023-04-01T00:08:45.521Z,8.77
2023-04-01T00:12:17.646Z,9.85
2023-04-01T00:15:50.003Z,9.27
2023-04-01T00:19:22.642Z,10.52
2023-04-01T00:22:54.918Z,8.60
2023-04-01T00:26:27.689Z,7.20
2023-04-01T00:30:00.086Z,8.80
2023-04-01T00:33:32.000Z,7.18
2023-04-01T00:37:04.987Z,8.00
2023-04-01T00:40:40.705Z,7.03
2023-04-01T00:44:22.400Z,11.15
2023-04-01T00:47:55.917Z,8.80
2023-04-01T00:51:30.530Z,8.33
2023-04-01T00:55:05.728Z,11.93
2023-04-01T00:58:42.221Z,9.52
2023-04-01T01:02:15.610Z,9.87
2023-04-01T01:06:03.950Z,9.90
2023-04-01T01:09:42.163Z,8.18
2023-04-01T01:13:25.884Z,10.45
2023-04-01T01:17:08.069Z,13.20
2023-04-01T01:20:51.837Z,9.15
2023-04-01T01:24:38.706Z,8.65
2023-04-01T01:28:34.651Z,10.50
2023-04-01T01:32:06.714Z,11.65
2023-04-01T01:35:48.877Z,12.20
2023-04-01T01:39:22.020Z,10.70
2023-04-01T01:42:57.953Z,13.73
2023-04-01T01:46:31.910Z,12.05
2023-04-01T01:50:05.947Z,11.15
2023-04-01T01:53:38.134Z,9.97
2023-04-01T01:57:11.517Z,12.38
2023-04-01T02:00:47.566Z,12.82
2023-04-01T02:04:20.365Z,10.30
2023-04-01T02:08:10.622Z,10.98
2023-04-01T02:11:58.274Z,12.20
2023-04-01T02:15:34.222Z,12.27
2023-04-01T02:19:11.372Z,12.13
2023-04-01T02:22:49.328Z,10.82
2023-04-01T02:26:22.179Z,14.45
2023-04-01T02:29:54.410Z,12.57
2023-04-01T02:33:26.453Z,15.95
2023-04-01T02:36:58.886Z,10.02
2023-04-01T02:40:30.822Z,12.67
2023-04-01T02:44:03.066Z,11.43
2023-04-01T02:47:35.349Z,13.95
2023-04-01T02:51:07.451Z,12.00
2023-04-01T02:54:39.760Z,13.55
2023-04-01T02:58:12.444Z,13.13
2023-04-01T03:01:44.270Z,11.48
2023-04-01T03:05:16.496Z,12.27
2023-04-01T03:08:48.594Z,11.80
2023-04-01T03:12:20.756Z,13.32
2023-04-01T03:15:53.004Z,12.80
2023-04-01T03:19:25.342Z,12.10
2023-04-01T03:22:57.170Z,11.00
2023-04-01T03:26:29.490Z,11.00
2023-04-01T03:30:01.472Z,10.03
2023-04-01T03:33:33.938Z,10.93
2023-04-01T03:37:06.930Z,11.13
2023-04-01T03:40:43.649Z,11.53
2023-04-01T03:44:15.756Z,12.27
2023-04-01T03:47:47.860Z,13.15
2023-04-01T03:51:20.401Z,12.23
2023-04-01T03:54:52.644Z,10.80
2023-04-01T03:58:24.410Z,11.45
2023-04-01T04:01:56.792Z,11.13
2023-04-01T04:05:29.315Z,12.77
2023-04-01T04:09:01.632Z,13.27
2023-04-01T04:12:33.971Z,14.93
2023-04-01T04:16:11.169Z,13.83
2023-04-01T04:19:43.821Z,13.87
2023-04-01T04:23:16.193Z,15.02
2023-04-01T04:26:48.163Z,13.23
2023-04-01T04:30:20.335Z,18.17
2023-04-01T04:33:52.574Z,15.60
2023-04-01T04:37:24.793Z,14.88
2023-04-01T04:40:57.406Z,14.33
2023-04-01T04:44:29.536Z,13.63
2023-04-01T04:48:01.510Z,16.75
2023-04-01T04:51:37.025Z,13.73
2023-04-01T04:55:09.041Z,13.87
2023-04-01T04:58:41.296Z,15.27
2023-04-01T05:02:13.181Z,14.80
2023-04-01T05:05:53.810Z,13.87
2023-04-01T05:09:25.791Z,13.50
2023-04-01T05:12:58.520Z,15.52
2023-04-01T05:16:32.405Z,13.13
2023-04-01T05:20:06.062Z,16.92
2023-04-01T05:23:38.709Z,13.35
2023-04-01T05:27:10.889Z,13.82
2023-04-01T05:30:44.469Z,15.23
2023-04-01T05:34:16.995Z,19.88
2023-04-01T05:37:48.748Z,14.68
2023-04-01T05:41:22.906Z,12.60
2023-04-01T05:44:56.595Z,11.73
2023-04-01T05:48:28.659Z,13.30
2023-04-01T05:52:00.551Z,13.23
2023-04-01T05:55:33.172Z,11.48
2023-04-01T05:59:05.223Z,13.82
2023-04-01T06:02:38.873Z,13.05
2023-04-01T06:06:37.458Z,13.20
2023-04-01T06:10:20.761Z,14.57
2023-04-01T06:14:20.283Z,11.38
2023-04-01T06:18:15.324Z,14.60
2023-04-01T06:21:56.662Z,12.60
2023-04-01T06:25:28.559Z,14.98
2023-04-01T06:29:21.015Z,13.63
2023-04-01T06:32:56.043Z,17.60
2023-04-01T06:36:47.712Z,17.10
2023-04-01T06:40:51.392Z,16.90
2023-04-01T06:45:07.387Z,23.60
2023-04-01T06:49:27.193Z,19.45
2023-04-01T06:53:24.886Z,15.88
2023-04-01T06:57:06.785Z,15.17
2023-04-01T07:00:46.802Z,11.70
2023-04-01T07:04:24.119Z,12.23
2023-04-01T07:08:01.023Z,8.77
2023-04-01T07:11:36.017Z,12.40
2023-04-01T07:15:26.171Z,12.20
2023-04-01T07:19:09.730Z,10.98
2023-04-01T07:22:46.413Z,14.60
2023-04-01T07:26:22.146Z,13.77
2023-04-01T07:29:57.969Z,16.83
2023-04-01T07:34:08.604Z,14.50
2023-04-01T07:38:06.632Z,18.80
2023-04-01T07:42:05.353Z,24.38
2023-04-01T07:46:14.610Z,15.48
2023-04-01T07:50:10.126Z,15.23
2023-04-01T07:54:14.454Z,17.27
2023-04-01T07:58:01.431Z,15.43
2023-04-01T08:01:37.360Z,12.23
2023-04-01T08:05:31.788Z,13.70
2023-04-01T08:09:25.532Z,13.95
2023-04-01T08:13:43.234Z,14.70
2023-04-01T08:17:45.818Z,12.30
2023-04-01T08:21:26.154Z,13.37
2023-04-01T08:25:03.729Z,15.98
2023-04-01T08:28:35.596Z,16.40
2023-04-01T08:32:17.032Z,13.77
2023-04-01T08:35:57.447Z,13.70
2023-04-01T08:39:35.300Z,13.95
2023-04-01T08:43:37.087Z,13.73
2023-04-01T08:47:31.472Z,15.83
2023-04-01T08:51:23.190Z,16.77
2023-04-01T08:55:05.703Z,16.25
2023-04-01T08:59:19.614Z,16.40
2023-04-01T09:03:15.198Z,16.07
2023-04-01T09:07:22.474Z,16.40
2023-04-01T09:11:12.559Z,18.25
2023-04-01T09:14:48.580Z,15.17
2023-04-01T09:18:45.159Z,16.73
2023-04-01T09:22:41.603Z,16.67
2023-04-01T09:26:39.585Z,19.73
2023-04-01T09:30:43.373Z,16.23
2023-04-01T09:34:34.537Z,16.45
2023-04-01T09:38:20.803Z,16.88
2023-04-01T09:42:02.086Z,14.68
2023-04-01T09:45:36.721Z,15.63
2023-04-01T09:49:46.175Z,16.05
2023-04-01T09:53:33.834Z,16.58
2023-04-01T09:57:37.612Z,16.33
2023-04-01T10:02:04.635Z,17.00
2023-04-01T10:06:14.260Z,17.52
2023-04-01T10:10:20.265Z,20.88
2023-04-01T10:13:58.244Z,21.63
2023-04-01T10:17:42.273Z,20.83
2023-04-01T10:21:36.460Z,22.10
2023-04-01T10:25:46.408Z,21.60
2023-04-01T10:29:27.463Z,21.23
2023-04-01T10:33:46.856Z,22.52
2023-04-01T10:37:38.623Z,24.00
2023-04-01T10:41:55.781Z,22.00
2023-04-01T10:45:40.124Z,19.70
2023-04-01T10:49:30.873Z,21.10
2023-04-01T10:53:33.703Z,15.68
2023-04-01T10:57:30.248Z,19.93
2023-04-01T11:01:47.911Z,20.40
2023-04-01T11:05:56.105Z,19.13
2023-04-01T11:09:37.441Z,20.23
2023-04-01T11:13:37.693Z,17.30
2023-04-01T11:17:09.752Z,21.60
2023-04-01T11:21:07.263Z,17.40
2023-04-01T11:25:00.957Z,16.20
2023-04-01T11:28:56.325Z,20.95
2023-04-01T11:32:47.924Z,18.38
2023-04-01T11:36:40.929Z,17.33
2023-04-01T11:40:32.669Z,17.58
2023-04-01T11:44:25.627Z,16.67
2023-04-01T11:48:19.473Z,19.92
2023-04-01T11:52:21.708Z,20.73
2023-04-01T11:56:15.846Z,19.23
2023-04-01T12:00:35.192Z,12.65
2023-04-01T12:04:23.167Z,12.10
2023-04-01T12:08:13.455Z,14.10
2023-04-01T12:11:53.560Z,14.50
2023-04-01T12:15:55.856Z,15.23
2023-04-01T12:19:58.542Z,13.57
2023-04-01T12:23:52.003Z,9.95
2023-04-01T12:27:39.270Z,12.43
2023-04-01T12:31:24.930Z,13.97
2023-04-01T12:35:31.072Z,11.73
2023-04-01T12:39:41.979Z,12.48
2023-04-01T12:43:44.388Z,10.63
2023-04-01T12:47:31.627Z,12.27
2023-04-01T12:51:22.161Z,12.75
2023-04-01T12:55:23.413Z,9.73
2023-04-01T12:58:56.075Z,13.07
2023-04-01T13:02:53.442Z,11.55
2023-04-01T13:06:54.497Z,11.60
2023-04-01T13:10:54.969Z,11.87
2023-04-01T13:14:48.198Z,12.02
2023-04-01T13:18:33.094Z,13.25
2023-04-01T13:22:14.341Z,11.38
2023-04-01T13:26:13.632Z,9.90
2023-04-01T13:30:11.026Z,9.23
2023-04-01T13:33:57.314Z,9.13
2023-04-01T13:37:44.309Z,9.13
2023-04-01T13:41:22.122Z,8.60
2023-04-01T13:45:14.953Z,8.15
2023-04-01T13:48:50.550Z,9.82
2023-04-01T13:52:39.818Z,9.23
2023-04-01T13:56:17.876Z,10.37
2023-04-01T14:00:02.187Z,11.35
2023-04-01T14:03:38.287Z,9.45
2023-04-01T14:07:33.794Z,9.77
2023-04-01T14:11:08.479Z,10.52
2023-04-01T14:14:49.326Z,11.45
2023-04-01T14:18:52.491Z,12.07
2023-04-01T14:22:47.699Z,12.15
2023-04-01T14:26:41.365Z,12.18
2023-04-01T14:30:42.336Z,11.52
2023-04-01T14:34:47.463Z,9.77
2023-04-01T14:38:52.389Z,11.95
2023-04-01T14:42:30.575Z,10.48
2023-04-01T14:46:20.972Z,15.10
2023-04-01T14:50:15.183Z,11.82
2023-04-01T14:54:23.600Z,9.82
2023-04-01T14:58:08.202Z,9.70
2023-04-01T15:01:48.352Z,11.37
2023-04-01T15:05:50.027Z,10.63
2023-04-01T15:09:24.781Z,10.85
2023-04-01T15:13:16.838Z,10.00
2023-04-01T15:17:22.229Z,9.63
2023-04-01T15:21:13.418Z,11.90
2023-04-01T15:25:00.787Z,11.98
2023-04-01T15:28:35.874Z,9.20
2023-04-01T15:32:30.401Z,12.10
2023-04-01T15:36:41.677Z,12.68
2023-04-01T15:40:38.724Z,11.52
2023-04-01T15:44:41.595Z,12.83
2023-04-01T15:48:40.959Z,11.80
2023-04-01T15:52:23.908Z,9.60
2023-04-01T15:56:13.781Z,16.70
2023-04-01T16:00:01.576Z,11.57
2023-04-01T16:03:55.716Z,18.88
2023-04-01T16:07:53.170Z,14.07
2023-04-01T16:12:05.733Z,12.73
2023-04-01T16:16:00.700Z,12.43
2023-04-01T16:19:48.168Z,10.15
2023-04-01T16:23:38.980Z,9.97
2023-04-01T16:27:23.365Z,11.38
2023-04-01T16:31:10.552Z,10.40
2023-04-01T16:34:55.525Z,12.83
2023-04-01T16:38:30.674Z,14.15
2023-04-01T16:42:20.665Z,14.77
2023-04-01T16:46:22.314Z,15.48
2023-04-01T16:50:21.453Z,14.53
2023-04-01T16:54:14.408Z,16.70
2023-04-01T16:58:19.183Z,12.95
2023-04-01T17:02:06.608Z,17.90
2023-04-01T17:05:45.244Z,14.45
2023-04-01T17:09:29.706Z,17.83
2023-04-01T17:13:26.621Z,13.30
2023-04-01T17:17:32.653Z,13.60
2023-04-01T17:21:27.584Z,12.00
2023-04-01T17:25:40.056Z,14.18
2023-04-01T17:29:39.661Z,11.30
2023-04-01T17:33:33.032Z,17.40
2023-04-01T17:37:42.634Z,15.32
2023-04-01T17:41:34.079Z,11.57
2023-04-01T17:45:19.386Z,15.63
2023-04-01T17:48:51.666Z,9.18
2023-04-01T17:52:26.193Z,12.40
2023-04-01T17:56:26.603Z,9.40
2023-04-01T18:00:04.897Z,7.57
2023-04-01T18:03:55.149Z,9.15
2023-04-01T18:07:46.866Z,10.17
2023-04-01T18:11:40.206Z,9.52
2023-04-01T18:15:24.587Z,13.60
2023-04-01T18:19:07.721Z,7.53
2023-04-01T18:22:55.048Z,10.68
2023-04-01T18:26:33.173Z,6.38
2023-04-01T18:30:17.244Z,9.23
2023-04-01T18:34:43.105Z,10.38
2023-04-01T18:38:48.550Z,10.30
2023-04-01T18:42:54.089Z,10.93
2023-04-01T18:46:58.955Z,10.17
2023-04-01T18:50:48.372Z,8.48
2023-04-01T18:55:04.034Z,14.57
2023-04-01T18:58:56.525Z,10.30
2023-04-01T19:02:44.369Z,11.40
2023-04-01T19:06:31.184Z,11.30
2023-04-01T19:10:18.086Z,13.17
2023-04-01T19:14:05.399Z,7.95
2023-04-01T19:17:55.772Z,11.15
2023-04-01T19:22:12.965Z,8.77
2023-04-01T19:25:55.207Z,10.27
2023-04-01T19:29:53.291Z,12.85
2023-04-01T19:34:12.669Z,8.90
2023-04-01T19:38:26.698Z,10.63
2023-04-01T19:47:03.617Z,13.23
2023-04-01T19:50:50.950Z,12.07
2023-04-01T19:55:13.227Z,10.02
2023-04-01T19:59:16.195Z,10.05
2023-04-01T20:02:58.124Z,13.45
2023-04-01T20:06:53.594Z,7.20
2023-04-01T20:10:46.016Z,12.48
2023-04-01T20:14:47.044Z,8.73
2023-04-01T20:19:08.569Z,10.60
2023-04-01T20:22:51.709Z,7.40
2023-04-01T20:26:37.289Z,9.30
2023-04-01T20:30:43.033Z,8.33
2023-04-01T20:34:43.557Z,7.53
2023-04-01T20:38:56.143Z,8.35
2023-04-01T20:42:51.790Z,9.50
2023-04-01T20:46:43.059Z,8.17
2023-04-01T20:50:49.678Z,10.02
2023-04-01T20:54:42.487Z,8.70
2023-04-01T20:58:30.267Z,11.50
2023-04-01T21:02:17.112Z,11.52
2023-04-01T21:06:16.718Z,11.20
2023-04-01T21:10:26.335Z,11.03
2023-04-01T21:14:33.293Z,11.15
2023-04-01T21:18:20.780Z,12.75
2023-04-01T21:22:17.811Z,15.63
2023-04-01T21:26:05.464Z,14.87
2023-04-01T21:30:04.772Z,13.07
2023-04-01T21:34:12.335Z,11.70
2023-04-01T21:37:59.747Z,9.63
2023-04-01T21:41:46.777Z,11.95
2023-04-01T21:45:34.240Z,10.98
2023-04-01T21:49:26.214Z,15.23
2023-04-01T21:53:41.300Z,13.13
2023-04-01T21:57:36.735Z,12.95
2023-04-01T22:01:15.004Z,13.80
2023-04-01T22:05:13.492Z,11.80
2023-04-01T22:09:11.572Z,13.05
2023-04-01T22:12:46.789Z,12.43
2023-04-01T22:16:37.583Z,17.27
2023-04-01T22:20:25.000Z,10.07
2023-04-01T22:24:07.958Z,10.82
2023-04-01T22:27:51.311Z,9.90
2023-04-01T22:31:34.128Z,11.68
2023-04-01T22:35:16.439Z,8.48
2023-04-01T22:39:01.899Z,10.20
2023-04-01T22:42:47.601Z,9.97
2023-04-01T22:46:34.223Z,8.70
2023-04-01T22:50:09.810Z,8.95
2023-04-01T22:54:06.471Z,9.70
2023-04-01T22:57:54.862Z,7.88
2023-04-01T23:01:31.883Z,10.77
2023-04-01T23:05:07.341Z,8.23
2023-04-01T23:09:20.959Z,10.13
2023-04-01T23:13:03.457Z,9.88
2023-04-01T23:17:07.908Z,8.55
2023-04-01T23:20:55.250Z,10.33
2023-04-01T23:24:36.952Z,9.07
2023-04-01T23:28:41.928Z,9.63
2023-04-01T23:32:34.159Z,8.73
2023-04-01T23:36:14.983Z,5.90
2023-04-01T23:39:49.556Z,6.70
2023-04-01T23:43:28.582Z,6.80
2023-04-01T23:47:03.205Z,6.78
2023-04-01T23:50:35.685Z,7.78
2023-04-01T23:54:40.860Z,11.35
2023-04-01T23:58:38.782Z,7.37
